createdAt,value
2022-09-06T00:00:18.766Z,26.00
2022-09-06T00:02:46.485Z,26.02
2022-09-06T00:05:14.355Z,26.02
2022-09-06T00:07:42.233Z,26.01
2022-09-06T00:10:10.568Z,25.99
2022-09-06T00:12:38.325Z,25.98
2022-09-06T00:15:06.877Z,25.98
2022-09-06T00:17:34.072Z,25.99
2022-09-06T00:20:01.465Z,25.99
2022-09-06T00:22:28.910Z,25.96
2022-09-06T00:24:56.028Z,25.95
2022-09-06T00:27:23.381Z,25.89
2022-09-06T00:29:50.594Z,25.86
2022-09-06T00:32:17.954Z,25.81
2022-09-06T00:34:45.309Z,25.79
2022-09-06T00:37:12.423Z,25.82
2022-09-06T00:39:39.741Z,25.84
2022-09-06T00:42:11.642Z,25.86
2022-09-06T00:44:39.783Z,25.88
2022-09-06T00:47:08.879Z,25.88
2022-09-06T00:49:43.079Z,25.89
2022-09-06T00:52:13.980Z,25.86
2022-09-06T00:54:42.206Z,25.85
2022-09-06T00:57:10.378Z,25.87
2022-09-06T00:59:39.837Z,25.84
2022-09-06T01:02:09.682Z,25.84
2022-09-06T01:04:40.453Z,25.82
2022-09-06T01:07:41.082Z,25.80
2022-09-06T01:10:42.419Z,25.81
2022-09-06T01:13:45.336Z,25.81
2022-09-06T01:16:34.289Z,25.81
2022-09-06T01:19:21.951Z,25.82
2022-09-06T01:22:03.481Z,25.82
2022-09-06T01:24:55.074Z,25.82
2022-09-06T01:27:50.044Z,25.82
2022-09-06T01:30:19.709Z,25.77
2022-09-06T01:32:55.479Z,25.72
2022-09-06T01:35:38.872Z,25.72
2022-09-06T01:38:07.662Z,25.72
2022-09-06T01:40:36.712Z,25.68
2022-09-06T01:43:10.648Z,25.65
2022-09-06T01:46:16.398Z,25.63
2022-09-06T01:49:11.853Z,25.60
2022-09-06T01:51:57.585Z,25.59
2022-09-06T01:54:33.508Z,25.58
2022-09-06T01:57:11.892Z,25.53
2022-09-06T02:00:09.307Z,25.53
2022-09-06T02:02:56.388Z,25.49
2022-09-06T02:05:36.257Z,25.48
2022-09-06T02:08:13.147Z,25.44
2022-09-06T02:11:05.110Z,25.41
2022-09-06T02:13:44.521Z,25.39
2022-09-06T02:16:17.997Z,25.40
2022-09-06T02:18:55.417Z,25.40
2022-09-06T02:21:29.952Z,25.38
2022-09-06T02:24:02.310Z,25.38
2022-09-06T02:26:33.065Z,25.38
2022-09-06T02:29:00.769Z,25.36
2022-09-06T02:31:36.181Z,25.34
2022-09-06T02:34:04.519Z,25.34
2022-09-06T02:36:33.035Z,25.32
2022-09-06T02:39:01.744Z,25.33
2022-09-06T02:41:29.596Z,25.32
2022-09-06T02:43:57.307Z,25.31
2022-09-06T02:46:24.719Z,25.31
2022-09-06T02:48:52.105Z,25.27
2022-09-06T02:51:19.376Z,25.26
2022-09-06T02:53:46.848Z,25.23
2022-09-06T02:56:14.062Z,25.22
2022-09-06T02:58:41.351Z,25.22
2022-09-06T03:01:08.628Z,25.22
2022-09-06T03:03:35.934Z,25.22
2022-09-06T03:06:03.176Z,25.17
2022-09-06T03:08:33.739Z,25.18
2022-09-06T03:11:01.810Z,25.16
2022-09-06T03:13:29.136Z,25.18
2022-09-06T03:15:58.424Z,25.17
2022-09-06T03:18:27.466Z,25.15
2022-09-06T03:20:56.063Z,25.14
2022-09-06T03:23:26.148Z,25.08
2022-09-06T03:25:53.973Z,25.07
2022-09-06T03:28:21.959Z,25.06
2022-09-06T03:30:51.669Z,25.06
2022-09-06T03:33:20.214Z,25.04
2022-09-06T03:35:52.714Z,25.03
2022-09-06T03:38:21.200Z,25.00
2022-09-06T03:40:49.375Z,24.95
2022-09-06T03:43:18.065Z,24.87
2022-09-06T03:45:47.308Z,24.84
2022-09-06T03:48:15.692Z,24.80
2022-09-06T03:50:47.442Z,24.70
2022-09-06T03:53:22.749Z,24.63
2022-09-06T03:55:53.167Z,24.60
2022-09-06T03:58:22.261Z,24.57
2022-09-06T04:00:49.820Z,24.60
2022-09-06T04:03:19.617Z,24.62
2022-09-06T04:05:47.285Z,24.64
2022-09-06T04:08:14.444Z,24.62
2022-09-06T04:10:41.801Z,24.62
2022-09-06T04:13:08.901Z,24.61
2022-09-06T04:15:37.294Z,24.64
2022-09-06T04:18:09.039Z,24.67
2022-09-06T04:20:36.639Z,24.65
2022-09-06T04:23:04.358Z,24.66
2022-09-06T04:25:31.688Z,24.63
2022-09-06T04:27:59.061Z,24.64
2022-09-06T04:30:26.356Z,24.64
2022-09-06T04:32:53.454Z,24.64
2022-09-06T04:35:20.631Z,24.66
2022-09-06T04:37:47.959Z,24.68
2022-09-06T04:40:15.353Z,24.63
2022-09-06T04:42:42.966Z,24.58
2022-09-06T04:45:10.637Z,24.62
2022-09-06T04:47:38.122Z,24.66
2022-09-06T04:50:05.506Z,24.69
2022-09-06T04:52:32.651Z,24.81
2022-09-06T04:54:59.863Z,24.99
2022-09-06T04:57:27.037Z,25.27
2022-09-06T04:59:54.310Z,25.59
2022-09-06T05:02:21.488Z,25.96
2022-09-06T05:04:48.812Z,26.33
2022-09-06T05:07:15.938Z,26.70
2022-09-06T05:09:43.185Z,27.05
2022-09-06T05:12:10.403Z,27.53
2022-09-06T05:14:37.570Z,27.97
2022-09-06T05:17:05.013Z,28.43
2022-09-06T05:19:32.127Z,28.95
2022-09-06T05:21:59.431Z,29.42
2022-09-06T05:24:26.566Z,29.89
2022-09-06T05:26:53.851Z,30.43
2022-09-06T05:29:20.938Z,31.03
2022-09-06T05:31:48.250Z,31.43
2022-09-06T05:34:15.433Z,31.94
2022-09-06T05:36:42.589Z,32.50
2022-09-06T05:39:09.823Z,32.68
2022-09-06T05:41:36.953Z,32.95
2022-09-06T05:44:04.616Z,33.31
2022-09-06T05:46:31.897Z,33.65
2022-09-06T05:49:04.879Z,33.83
2022-09-06T05:51:33.048Z,33.82
2022-09-06T05:54:00.518Z,33.90
2022-09-06T05:56:27.880Z,34.03
2022-09-06T05:58:55.091Z,33.64
2022-09-06T06:01:26.835Z,33.74
2022-09-06T06:04:00.601Z,33.33
2022-09-06T06:06:31.581Z,33.50
2022-09-06T06:08:59.178Z,33.31
2022-09-06T06:11:27.443Z,33.19
2022-09-06T06:13:55.391Z,32.66
2022-09-06T06:16:23.305Z,32.30
2022-09-06T06:18:52.523Z,32.76
2022-09-06T06:21:25.194Z,32.67
2022-09-06T06:23:55.701Z,32.26
2022-09-06T06:26:23.894Z,32.23
2022-09-06T06:28:51.830Z,32.30
2022-09-06T06:31:21.214Z,32.60
2022-09-06T06:33:48.844Z,32.73
2022-09-06T06:36:15.887Z,33.14
2022-09-06T06:38:44.797Z,33.39
2022-09-06T06:41:14.548Z,33.63
2022-09-06T06:43:42.329Z,33.63
2022-09-06T06:46:17.671Z,32.93
2022-09-06T06:48:46.221Z,33.02
2022-09-06T06:51:19.933Z,32.56
2022-09-06T06:53:47.882Z,32.89
2022-09-06T06:56:15.452Z,32.96
2022-09-06T06:58:43.086Z,32.63
2022-09-06T07:01:10.684Z,32.47
2022-09-06T07:03:38.209Z,32.64
2022-09-06T07:06:13.218Z,32.61
2022-09-06T07:08:41.561Z,32.56
2022-09-06T07:11:11.567Z,32.55
2022-09-06T07:13:39.278Z,32.55
2022-09-06T07:16:21.854Z,32.29
2022-09-06T07:18:55.687Z,32.06
2022-09-06T07:21:42.539Z,31.92
2022-09-06T07:24:10.451Z,32.21
2022-09-06T07:26:40.174Z,32.27
2022-09-06T07:29:08.607Z,32.41
2022-09-06T07:34:26.088Z,32.43
2022-09-06T07:36:54.943Z,32.03
2022-09-06T07:39:22.708Z,31.87
2022-09-06T07:41:50.059Z,31.86
2022-09-06T07:44:17.250Z,31.96
2022-09-06T07:46:44.770Z,31.92
2022-09-06T07:49:12.268Z,32.11
2022-09-06T07:51:39.513Z,32.13
2022-09-06T07:54:28.858Z,32.16
2022-09-06T07:56:54.421Z,32.24
2022-09-06T07:59:21.666Z,32.29
2022-09-06T08:01:49.675Z,32.30
2022-09-06T08:04:17.021Z,32.22
2022-09-06T08:09:37.198Z,31.46
2022-09-06T08:12:07.571Z,31.33
2022-09-06T08:14:35.909Z,31.16
2022-09-06T08:17:04.396Z,30.80
2022-09-06T08:19:33.130Z,30.46
2022-09-06T08:22:00.282Z,30.38
2022-09-06T08:24:28.715Z,29.96
2022-09-06T08:26:56.581Z,29.64
2022-09-06T08:29:23.892Z,29.28
2022-09-06T08:31:51.126Z,29.11
2022-09-06T08:34:18.469Z,28.89
2022-09-06T08:36:46.157Z,28.66
2022-09-06T08:39:13.507Z,28.56
2022-09-06T08:41:40.581Z,28.68
2022-09-06T08:47:16.450Z,28.68
2022-09-06T08:49:46.451Z,28.49
2022-09-06T08:52:45.381Z,28.58
2022-09-06T08:55:27.235Z,28.56
2022-09-06T08:58:15.091Z,28.42
2022-09-06T09:00:48.467Z,28.33
2022-09-06T09:03:20.290Z,28.31
2022-09-06T09:05:51.156Z,28.29
2022-09-06T09:08:45.119Z,28.19
2022-09-06T09:11:17.742Z,28.34
2022-09-06T09:13:44.824Z,28.29
2022-09-06T09:16:12.172Z,28.38
2022-09-06T09:18:42.689Z,28.37
2022-09-06T09:21:10.647Z,28.48
2022-09-06T09:23:38.098Z,28.40
2022-09-06T09:26:11.098Z,28.59
2022-09-06T09:28:38.413Z,28.48
2022-09-06T09:31:07.305Z,28.67
2022-09-06T09:33:39.184Z,28.63
2022-09-06T09:36:13.813Z,28.59
2022-09-06T09:38:46.316Z,28.53
2022-09-06T09:41:38.792Z,28.50
2022-09-06T09:44:11.558Z,28.45
2022-09-06T09:46:40.180Z,28.46
2022-09-06T09:49:11.916Z,28.79
2022-09-06T09:52:05.638Z,29.19
2022-09-06T09:54:37.443Z,28.93
2022-09-06T09:57:12.113Z,28.93
2022-09-06T10:00:01.450Z,28.86
2022-09-06T10:02:39.344Z,29.07
2022-09-06T10:05:12.590Z,29.10
2022-09-06T10:07:49.543Z,29.10
2022-09-06T10:10:26.686Z,29.10
2022-09-06T10:13:21.596Z,29.25
2022-09-06T10:15:50.680Z,29.37
2022-09-06T10:18:23.735Z,29.60
2022-09-06T10:20:56.990Z,29.54
2022-09-06T10:26:26.243Z,29.30
2022-09-06T10:29:03.460Z,29.28
2022-09-06T10:31:42.355Z,29.16
2022-09-06T10:34:26.991Z,29.10
2022-09-06T10:37:24.853Z,29.20
2022-09-06T10:40:00.049Z,29.60
2022-09-06T10:42:44.312Z,29.61
2022-09-06T10:45:37.811Z,29.50
2022-09-06T10:48:15.020Z,29.36
2022-09-06T10:51:00.616Z,29.45
2022-09-06T10:53:55.471Z,29.26
2022-09-06T10:57:03.978Z,29.41
2022-09-06T10:59:39.281Z,29.66
2022-09-06T11:02:16.933Z,29.56
2022-09-06T11:07:40.476Z,29.42
2022-09-06T11:10:33.696Z,29.32
2022-09-06T11:13:04.980Z,29.21
2022-09-06T11:16:21.778Z,29.07
2022-09-06T11:18:59.277Z,29.16
2022-09-06T11:21:51.525Z,29.23
2022-09-06T11:24:40.982Z,29.33
2022-09-06T11:27:26.536Z,29.31
2022-09-06T11:29:58.458Z,29.54
2022-09-06T11:32:28.427Z,29.55
2022-09-06T11:34:59.430Z,29.55
2022-09-06T11:37:31.352Z,29.55
2022-09-06T11:42:52.330Z,29.85
2022-09-06T11:45:21.970Z,29.72
2022-09-06T11:47:51.906Z,29.21
2022-09-06T11:50:26.150Z,29.12
2022-09-06T11:53:17.243Z,29.30
2022-09-06T11:55:50.422Z,29.03
2022-09-06T11:58:17.913Z,29.05
2022-09-06T12:01:14.067Z,29.03
2022-09-06T12:04:09.967Z,29.12
2022-09-06T12:07:01.657Z,29.18
2022-09-06T12:09:38.085Z,29.35
2022-09-06T12:12:05.728Z,29.35
2022-09-06T12:14:40.519Z,29.26
2022-09-06T12:17:09.084Z,29.25
2022-09-06T12:19:54.914Z,29.37
2022-09-06T12:22:28.235Z,29.39
2022-09-06T12:25:16.951Z,29.37
2022-09-06T12:28:01.774Z,29.37
2022-09-06T12:30:32.153Z,29.31
2022-09-06T12:33:01.454Z,29.09
2022-09-06T12:38:25.453Z,29.29
2022-09-06T12:40:58.687Z,29.34
2022-09-06T12:43:27.211Z,29.33
2022-09-06T12:45:54.492Z,29.26
2022-09-06T12:48:35.509Z,29.32
2022-09-06T12:51:20.338Z,29.29
2022-09-06T12:54:24.703Z,29.26
2022-09-06T12:56:52.851Z,29.39
2022-09-06T12:59:25.416Z,29.31
2022-09-06T13:01:56.071Z,29.20
2022-09-06T13:04:44.140Z,29.28
2022-09-06T13:07:15.593Z,29.28
2022-09-06T13:09:47.163Z,29.29
2022-09-06T13:12:28.009Z,29.44
2022-09-06T13:14:57.233Z,29.34
2022-09-06T13:17:30.038Z,29.31
2022-09-06T13:20:03.140Z,29.25
2022-09-06T13:22:49.533Z,29.32
2022-09-06T13:25:25.675Z,29.23
2022-09-06T13:27:59.088Z,28.92
2022-09-06T13:30:49.560Z,28.77
2022-09-06T13:33:26.914Z,28.58
2022-09-06T13:36:14.336Z,28.85
2022-09-06T13:38:44.359Z,29.11
2022-09-06T13:41:26.524Z,29.31
2022-09-06T13:44:06.271Z,29.38
2022-09-06T13:46:36.408Z,29.32
2022-09-06T13:49:04.461Z,29.23
2022-09-06T13:51:32.263Z,29.20
2022-09-06T13:54:06.794Z,29.11
2022-09-06T13:56:34.483Z,29.01
2022-09-06T13:59:02.091Z,28.94
2022-09-06T14:01:29.761Z,28.83
2022-09-06T14:03:56.926Z,28.79
2022-09-06T14:06:24.223Z,28.79
2022-09-06T14:09:08.184Z,28.87
2022-09-06T14:11:36.823Z,28.71
2022-09-06T14:14:04.933Z,28.79
2022-09-06T14:16:33.668Z,28.80
2022-09-06T14:19:00.862Z,28.88
2022-09-06T14:21:28.224Z,28.96
2022-09-06T14:23:55.492Z,28.86
2022-09-06T14:26:24.691Z,28.73
2022-09-06T14:28:52.226Z,28.73
2022-09-06T14:31:26.358Z,28.67
2022-09-06T14:33:55.325Z,28.61
2022-09-06T14:36:24.706Z,28.58
2022-09-06T14:38:52.048Z,28.57
2022-09-06T14:41:20.874Z,28.47
2022-09-06T14:43:51.190Z,28.57
2022-09-06T14:46:20.236Z,28.69
2022-09-06T14:48:47.884Z,28.72
2022-09-06T14:51:24.353Z,28.77
2022-09-06T14:54:01.750Z,28.75
2022-09-06T14:56:30.230Z,28.74
2022-09-06T14:58:58.596Z,28.67
2022-09-06T15:01:37.069Z,28.62
2022-09-06T15:04:07.127Z,28.62
2022-09-06T15:06:37.187Z,28.63
2022-09-06T15:09:05.813Z,28.57
2022-09-06T15:11:39.611Z,28.48
2022-09-06T15:14:14.260Z,28.55
2022-09-06T15:16:41.619Z,28.55
2022-09-06T15:19:10.304Z,28.64
2022-09-06T15:21:37.556Z,28.82
2022-09-06T15:24:11.005Z,28.73
2022-09-06T15:26:39.965Z,28.67
2022-09-06T15:29:07.746Z,28.62
2022-09-06T15:31:35.488Z,28.59
2022-09-06T15:37:19.102Z,28.49
2022-09-06T15:39:46.237Z,28.47
2022-09-06T15:42:13.534Z,28.53
2022-09-06T15:44:40.870Z,28.59
2022-09-06T15:47:08.158Z,28.59
2022-09-06T15:49:36.981Z,28.44
2022-09-06T15:52:06.233Z,28.27
2022-09-06T15:54:51.702Z,28.22
2022-09-06T15:57:18.941Z,28.25
2022-09-06T15:59:46.476Z,28.26
2022-09-06T16:02:14.586Z,28.17
2022-09-06T16:04:42.025Z,28.17
2022-09-06T16:07:09.913Z,28.05
2022-09-06T16:09:37.226Z,28.11
2022-09-06T16:12:04.542Z,28.11
2022-09-06T16:14:32.210Z,28.10
2022-09-06T16:16:59.471Z,28.05
2022-09-06T16:19:26.706Z,28.01
2022-09-06T16:21:54.136Z,28.04
2022-09-06T16:24:21.621Z,28.02
2022-09-06T16:26:49.236Z,27.98
2022-09-06T16:29:20.869Z,27.90
2022-09-06T16:31:49.434Z,27.88
2022-09-06T16:34:17.118Z,27.87
2022-09-06T16:36:44.531Z,27.85
2022-09-06T16:39:11.951Z,27.80
2022-09-06T16:41:42.687Z,27.76
2022-09-06T16:44:18.146Z,27.78
2022-09-06T16:46:50.217Z,27.77
2022-09-06T16:49:19.516Z,27.76
2022-09-06T16:51:48.209Z,27.78
2022-09-06T16:54:16.111Z,27.82
2022-09-06T16:56:44.114Z,27.82
2022-09-06T16:59:13.251Z,27.82
2022-09-06T17:01:44.626Z,27.81
2022-09-06T17:04:13.273Z,27.81
2022-09-06T17:06:47.218Z,27.80
2022-09-06T17:09:18.931Z,27.79
2022-09-06T17:11:50.334Z,27.78
2022-09-06T17:14:18.383Z,27.76
2022-09-06T17:17:04.945Z,27.72
2022-09-06T17:19:41.852Z,27.69
2022-09-06T17:22:10.695Z,27.71
2022-09-06T17:24:39.283Z,27.67
2022-09-06T17:27:07.493Z,27.58
2022-09-06T17:29:35.184Z,27.58
2022-09-06T17:32:04.745Z,27.55
2022-09-06T17:34:33.248Z,27.52
2022-09-06T17:37:00.458Z,27.50
2022-09-06T17:39:27.763Z,27.50
2022-09-06T17:41:55.192Z,27.46
2022-09-06T17:44:25.628Z,27.48
2022-09-06T17:47:11.365Z,27.49
2022-09-06T17:49:40.146Z,27.43
2022-09-06T17:52:07.457Z,27.38
2022-09-06T17:54:37.804Z,27.39
2022-09-06T17:57:05.065Z,27.40
2022-09-06T17:59:35.336Z,27.35
2022-09-06T18:02:03.122Z,27.39
2022-09-06T18:04:30.439Z,27.40
2022-09-06T18:06:57.674Z,27.34
2022-09-06T18:09:24.780Z,27.30
2022-09-06T18:11:51.928Z,27.30
2022-09-06T18:14:23.569Z,27.30
2022-09-06T18:16:52.400Z,27.27
2022-09-06T18:19:19.692Z,27.27
2022-09-06T18:21:47.691Z,27.27
2022-09-06T18:24:15.591Z,27.25
2022-09-06T18:26:43.421Z,27.27
2022-09-06T18:29:15.026Z,27.27
2022-09-06T18:31:43.708Z,27.26
2022-09-06T18:34:11.093Z,27.28
2022-09-06T18:36:38.934Z,27.26
2022-09-06T18:39:06.903Z,27.22
2022-09-06T18:41:53.098Z,27.21
2022-09-06T18:44:20.780Z,27.24
2022-09-06T18:46:48.824Z,27.25
2022-09-06T18:49:17.686Z,27.27
2022-09-06T18:51:45.862Z,27.30
2022-09-06T18:54:14.812Z,27.25
2022-09-06T18:56:45.159Z,27.24
2022-09-06T18:59:14.050Z,27.22
2022-09-06T19:01:44.154Z,27.22
2022-09-06T19:04:12.961Z,27.15
2022-09-06T19:06:42.773Z,27.13
2022-09-06T19:09:15.388Z,27.15
2022-09-06T19:11:45.818Z,27.13
2022-09-06T19:14:15.139Z,27.13
2022-09-06T19:16:42.813Z,27.15
2022-09-06T19:19:11.944Z,27.12
2022-09-06T19:21:42.323Z,27.09
2022-09-06T19:24:12.352Z,27.04
2022-09-06T19:26:43.658Z,27.02
2022-09-06T19:29:19.194Z,27.01
2022-09-06T19:31:47.630Z,27.00
2022-09-06T19:34:16.069Z,27.00
2022-09-06T19:36:45.927Z,27.00
2022-09-06T19:39:15.754Z,27.00
2022-09-06T19:41:45.361Z,27.00
2022-09-06T19:44:15.125Z,26.97
2022-09-06T19:46:46.255Z,26.96
2022-09-06T19:49:19.853Z,26.97
2022-09-06T19:51:49.206Z,26.99
2022-09-06T19:54:17.473Z,26.98
2022-09-06T19:56:45.824Z,26.99
2022-09-06T19:59:14.637Z,26.96
2022-09-06T20:01:44.712Z,26.93
2022-09-06T20:04:14.426Z,26.88
2022-09-06T20:06:41.704Z,26.83
2022-09-06T20:09:10.382Z,26.80
2022-09-06T20:11:40.608Z,26.78
2022-09-06T20:14:08.813Z,26.77
2022-09-06T20:16:41.153Z,26.76
2022-09-06T20:19:09.782Z,26.77
2022-09-06T20:21:37.153Z,26.76
2022-09-06T20:24:07.968Z,26.74
2022-09-06T20:26:37.077Z,26.73
2022-09-06T20:29:05.386Z,26.71
2022-09-06T20:31:34.042Z,26.71
2022-09-06T20:34:04.557Z,26.70
2022-09-06T20:36:33.431Z,26.73
2022-09-06T20:39:01.016Z,26.73
2022-09-06T20:41:30.293Z,26.75
2022-09-06T20:43:59.974Z,26.76
2022-09-06T20:46:30.332Z,26.77
2022-09-06T20:49:02.107Z,26.78
2022-09-06T20:51:30.057Z,26.78
2022-09-06T20:53:59.458Z,26.76
2022-09-06T20:56:33.944Z,26.76
2022-09-06T20:59:03.811Z,26.73
2022-09-06T21:01:34.947Z,26.70
2022-09-06T21:04:05.441Z,26.70
2022-09-06T21:06:36.873Z,26.71
2022-09-06T21:09:08.159Z,26.69
2022-09-06T21:11:36.635Z,26.69
2022-09-06T21:14:04.832Z,26.70
2022-09-06T21:16:32.896Z,26.72
2022-09-06T21:19:03.991Z,26.71
2022-09-06T21:21:33.480Z,26.72
2022-09-06T21:24:05.626Z,26.70
2022-09-06T21:26:33.720Z,26.70
2022-09-06T21:29:00.912Z,26.69
2022-09-06T21:31:32.819Z,26.67
2022-09-06T21:34:03.701Z,26.65
2022-09-06T21:36:37.045Z,26.64
2022-09-06T21:39:10.755Z,26.63
2022-09-06T21:41:40.042Z,26.62
2022-09-06T21:44:08.418Z,26.64
2022-09-06T21:46:37.459Z,26.65
2022-09-06T21:49:07.640Z,26.64
2022-09-06T21:51:35.615Z,26.62
2022-09-06T21:54:04.663Z,26.58
2022-09-06T21:56:34.385Z,26.54
2022-09-06T21:59:02.811Z,26.53
2022-09-06T22:01:32.232Z,26.54
2022-09-06T22:04:00.480Z,26.55
2022-09-06T22:06:30.026Z,26.57
2022-09-06T22:09:00.294Z,26.60
2022-09-06T22:11:32.914Z,26.61
2022-09-06T22:14:02.582Z,26.62
2022-09-06T22:16:31.987Z,26.62
2022-09-06T22:18:59.453Z,26.62
2022-09-06T22:21:26.713Z,26.62
2022-09-06T22:23:56.809Z,26.63
2022-09-06T22:26:26.114Z,26.61
2022-09-06T22:29:02.316Z,26.56
2022-09-06T22:31:31.411Z,26.54
2022-09-06T22:33:59.422Z,26.53
2022-09-06T22:36:27.415Z,26.53
2022-09-06T22:38:57.904Z,26.51
2022-09-06T22:41:27.307Z,26.49
2022-09-06T22:43:55.638Z,26.47
2022-09-06T22:46:23.447Z,26.49
2022-09-06T22:48:50.683Z,26.49
2022-09-06T22:51:17.928Z,26.49
2022-09-06T22:53:45.259Z,26.50
2022-09-06T22:56:12.416Z,26.54
2022-09-06T22:58:39.692Z,26.59
2022-09-06T23:01:12.544Z,26.63
2022-09-06T23:03:41.102Z,26.64
2022-09-06T23:06:08.697Z,26.60
2022-09-06T23:08:37.915Z,26.57
2022-09-06T23:11:10.540Z,26.52
2022-09-06T23:13:37.840Z,26.50
2022-09-06T23:16:10.949Z,26.47
2022-09-06T23:18:38.726Z,26.43
2022-09-06T23:21:12.036Z,26.39
2022-09-06T23:23:40.296Z,26.38
2022-09-06T23:26:15.987Z,26.37
2022-09-06T23:28:43.325Z,26.37
2022-09-06T23:31:13.174Z,26.36
2022-09-06T23:33:42.036Z,26.33
2022-09-06T23:36:12.718Z,26.29
2022-09-06T23:38:41.233Z,26.29
2022-09-06T23:41:10.582Z,26.28
2022-09-06T23:43:39.009Z,26.26
2022-09-06T23:46:06.705Z,26.26
2022-09-06T23:48:33.989Z,26.23
2022-09-06T23:51:01.307Z,26.20
2022-09-06T23:53:28.546Z,26.18
2022-09-06T23:55:55.840Z,26.16
2022-09-06T23:58:23.189Z,26.17
